sensor_id;sensor_type;location;lat;lon;timestamp;temperature;humidity
6986;DHT22;3533;51.246;6.850;2023-08-07T00:00:26;22.70;47.10
6986;DHT22;3533;51.246;6.850;2023-08-07T00:02:51;22.60;47.00
6986;DHT22;3533;51.246;6.850;2023-08-07T00:05:17;22.60;47.00
6986;DHT22;3533;51.246;6.850;2023-08-07T00:07:43;22.60;47.00
6986;DHT22;3533;51.246;6.850;2023-08-07T00:10:09;22.60;47.00
6986;DHT22;3533;51.246;6.850;2023-08-07T00:12:35;22.60;47.00
6986;DHT22;3533;51.246;6.850;2023-08-07T00:15:01;22.60;47.00
6986;DHT22;3533;51.246;6.850;2023-08-07T00:17:27;22.60;47.00
6986;DHT22;3533;51.246;6.850;2023-08-07T00:19:53;22.60;47.00
6986;DHT22;3533;51.246;6.850;2023-08-07T00:22:18;22.60;47.00
6986;DHT22;3533;51.246;6.850;2023-08-07T00:24:44;22.60;47.00
6986;DHT22;3533;51.246;6.850;2023-08-07T00:27:09;22.60;47.00
6986;DHT22;3533;51.246;6.850;2023-08-07T00:29:36;22.60;47.00
6986;DHT22;3533;51.246;6.850;2023-08-07T00:32:02;22.60;47.00
6986;DHT22;3533;51.246;6.850;2023-08-07T00:34:29;22.60;47.00
6986;DHT22;3533;51.246;6.850;2023-08-07T00:36:54;22.60;46.80
6986;DHT22;3533;51.246;6.850;2023-08-07T00:39:20;22.60;47.20
6986;DHT22;3533;51.246;6.850;2023-08-07T00:41:46;22.60;46.80
6986;DHT22;3533;51.246;6.850;2023-08-07T00:44:12;22.60;47.00
6986;DHT22;3533;51.246;6.850;2023-08-07T00:46:37;22.60;47.00
6986;DHT22;3533;51.246;6.850;2023-08-07T00:49:05;22.60;47.00
6986;DHT22;3533;51.246;6.850;2023-08-07T00:51:31;22.60;46.90
6986;DHT22;3533;51.246;6.850;2023-08-07T00:53:58;22.60;46.70
6986;DHT22;3533;51.246;6.850;2023-08-07T00:56:25;22.60;46.70
6986;DHT22;3533;51.246;6.850;2023-08-07T00:58:51;22.60;46.90
6986;DHT22;3533;51.246;6.850;2023-08-07T01:01:17;22.60;46.80
6986;DHT22;3533;51.246;6.850;2023-08-07T01:03:42;22.60;46.60
6986;DHT22;3533;51.246;6.850;2023-08-07T01:06:08;22.60;46.60
6986;DHT22;3533;51.246;6.850;2023-08-07T01:08:34;22.60;46.60
6986;DHT22;3533;51.246;6.850;2023-08-07T01:16:50;22.60;46.60
6986;DHT22;3533;51.246;6.850;2023-08-07T01:19:27;22.60;46.60
6986;DHT22;3533;51.246;6.850;2023-08-07T01:22:13;22.50;46.50
6986;DHT22;3533;51.246;6.850;2023-08-07T01:24:40;22.50;46.50
6986;DHT22;3533;51.246;6.850;2023-08-07T01:27:35;22.50;46.50
6986;DHT22;3533;51.246;6.850;2023-08-07T01:32:43;22.50;46.60
6986;DHT22;3533;51.246;6.850;2023-08-07T01:35:12;22.50;46.50
6986;DHT22;3533;51.246;6.850;2023-08-07T01:37:41;22.50;47.30
6986;DHT22;3533;51.246;6.850;2023-08-07T01:40:08;22.50;46.50
6986;DHT22;3533;51.246;6.850;2023-08-07T01:42:36;22.50;46.30
6986;DHT22;3533;51.246;6.850;2023-08-07T01:45:03;22.50;46.30
6986;DHT22;3533;51.246;6.850;2023-08-07T01:47:29;22.50;46.30
6986;DHT22;3533;51.246;6.850;2023-08-07T01:49:54;22.50;46.30
6986;DHT22;3533;51.246;6.850;2023-08-07T01:52:20;22.50;46.30
6986;DHT22;3533;51.246;6.850;2023-08-07T01:54:46;22.50;46.20
6986;DHT22;3533;51.246;6.850;2023-08-07T01:57:12;22.50;46.30
6986;DHT22;3533;51.246;6.850;2023-08-07T01:59:37;22.50;46.30
6986;DHT22;3533;51.246;6.850;2023-08-07T02:02:03;22.50;46.40
6986;DHT22;3533;51.246;6.850;2023-08-07T02:04:29;22.50;46.40
6986;DHT22;3533;51.246;6.850;2023-08-07T02:06:54;22.50;46.50
6986;DHT22;3533;51.246;6.850;2023-08-07T02:09:20;22.50;46.70
6986;DHT22;3533;51.246;6.850;2023-08-07T02:11:46;22.50;46.70
6986;DHT22;3533;51.246;6.850;2023-08-07T02:14:12;22.50;46.80
6986;DHT22;3533;51.246;6.850;2023-08-07T02:16:37;22.50;46.80
6986;DHT22;3533;51.246;6.850;2023-08-07T02:19:03;22.50;46.70
6986;DHT22;3533;51.246;6.850;2023-08-07T02:21:28;22.50;46.60
6986;DHT22;3533;51.246;6.850;2023-08-07T02:23:54;22.50;46.60
6986;DHT22;3533;51.246;6.850;2023-08-07T02:26:19;22.50;46.60
6986;DHT22;3533;51.246;6.850;2023-08-07T02:28:45;22.50;46.40
6986;DHT22;3533;51.246;6.850;2023-08-07T02:31:10;22.50;46.40
6986;DHT22;3533;51.246;6.850;2023-08-07T02:33:36;22.50;46.60
6986;DHT22;3533;51.246;6.850;2023-08-07T02:36:01;22.50;46.50
6986;DHT22;3533;51.246;6.850;2023-08-07T02:38:27;22.50;46.40
6986;DHT22;3533;51.246;6.850;2023-08-07T02:40:52;22.50;46.40
6986;DHT22;3533;51.246;6.850;2023-08-07T02:43:18;22.50;46.30
6986;DHT22;3533;51.246;6.850;2023-08-07T02:45:44;22.50;47.20
6986;DHT22;3533;51.246;6.850;2023-08-07T02:48:09;22.50;46.30
6986;DHT22;3533;51.246;6.850;2023-08-07T02:50:35;22.50;46.40
6986;DHT22;3533;51.246;6.850;2023-08-07T02:53:01;22.50;46.30
6986;DHT22;3533;51.246;6.850;2023-08-07T02:55:27;22.50;46.30
6986;DHT22;3533;51.246;6.850;2023-08-07T02:57:52;22.50;46.30
6986;DHT22;3533;51.246;6.850;2023-08-07T03:00:18;22.50;46.50
6986;DHT22;3533;51.246;6.850;2023-08-07T03:02:44;22.50;46.60
6986;DHT22;3533;51.246;6.850;2023-08-07T03:05:09;22.50;46.70
6986;DHT22;3533;51.246;6.850;2023-08-07T03:07:35;22.50;46.90
6986;DHT22;3533;51.246;6.850;2023-08-07T03:10:00;22.50;46.90
6986;DHT22;3533;51.246;6.850;2023-08-07T03:12:26;22.50;46.90
6986;DHT22;3533;51.246;6.850;2023-08-07T03:14:52;22.50;46.90
6986;DHT22;3533;51.246;6.850;2023-08-07T03:17:17;22.50;46.80
6986;DHT22;3533;51.246;6.850;2023-08-07T03:19:43;22.50;46.90
6986;DHT22;3533;51.246;6.850;2023-08-07T03:22:09;22.50;46.90
6986;DHT22;3533;51.246;6.850;2023-08-07T03:24:35;22.50;46.90
6986;DHT22;3533;51.246;6.850;2023-08-07T03:27:00;22.50;46.90
6986;DHT22;3533;51.246;6.850;2023-08-07T03:29:26;22.50;46.80
6986;DHT22;3533;51.246;6.850;2023-08-07T03:31:52;22.50;46.90
6986;DHT22;3533;51.246;6.850;2023-08-07T03:34:17;22.50;46.90
6986;DHT22;3533;51.246;6.850;2023-08-07T03:36:44;22.50;46.90
6986;DHT22;3533;51.246;6.850;2023-08-07T03:39:09;22.50;46.90
6986;DHT22;3533;51.246;6.850;2023-08-07T03:41:35;22.50;46.90
6986;DHT22;3533;51.246;6.850;2023-08-07T03:44:01;22.50;46.90
6986;DHT22;3533;51.246;6.850;2023-08-07T03:46:26;22.40;46.80
6986;DHT22;3533;51.246;6.850;2023-08-07T03:48:52;22.50;46.90
6986;DHT22;3533;51.246;6.850;2023-08-07T03:51:17;22.50;46.80
6986;DHT22;3533;51.246;6.850;2023-08-07T03:53:43;22.50;46.90
6986;DHT22;3533;51.246;6.850;2023-08-07T03:56:09;22.50;46.90
6986;DHT22;3533;51.246;6.850;2023-08-07T03:58:34;22.50;46.90
6986;DHT22;3533;51.246;6.850;2023-08-07T04:01:00;22.50;46.80
6986;DHT22;3533;51.246;6.850;2023-08-07T04:03:25;22.50;46.90
6986;DHT22;3533;51.246;6.850;2023-08-07T04:05:55;22.50;46.90
6986;DHT22;3533;51.246;6.850;2023-08-07T04:08:21;22.50;46.90
6986;DHT22;3533;51.246;6.850;2023-08-07T04:10:58;22.50;46.90
6986;DHT22;3533;51.246;6.850;2023-08-07T04:13:24;22.50;46.90
6986;DHT22;3533;51.246;6.850;2023-08-07T04:15:50;22.50;46.90
6986;DHT22;3533;51.246;6.850;2023-08-07T04:18:15;22.50;46.90
6986;DHT22;3533;51.246;6.850;2023-08-07T04:20:42;22.50;46.80
6986;DHT22;3533;51.246;6.850;2023-08-07T04:23:07;22.50;46.60
6986;DHT22;3533;51.246;6.850;2023-08-07T04:25:34;22.50;46.50
6986;DHT22;3533;51.246;6.850;2023-08-07T04:27:59;22.50;46.20
6986;DHT22;3533;51.246;6.850;2023-08-07T04:30:25;22.50;46.00
6986;DHT22;3533;51.246;6.850;2023-08-07T04:32:50;22.50;45.90
6986;DHT22;3533;51.246;6.850;2023-08-07T04:35:16;22.60;45.90
6986;DHT22;3533;51.246;6.850;2023-08-07T04:37:41;22.60;45.70
6986;DHT22;3533;51.246;6.850;2023-08-07T04:40:07;22.60;45.50
6986;DHT22;3533;51.246;6.850;2023-08-07T04:42:34;22.60;45.40
6986;DHT22;3533;51.246;6.850;2023-08-07T04:44:59;22.60;45.50
6986;DHT22;3533;51.246;6.850;2023-08-07T04:47:27;22.60;45.40
6986;DHT22;3533;51.246;6.850;2023-08-07T04:49:52;22.60;45.50
6986;DHT22;3533;51.246;6.850;2023-08-07T04:52:18;22.60;45.40
6986;DHT22;3533;51.246;6.850;2023-08-07T04:54:44;22.60;45.50
6986;DHT22;3533;51.246;6.850;2023-08-07T04:57:09;22.60;45.60
6986;DHT22;3533;51.246;6.850;2023-08-07T04:59:35;22.60;45.70
6986;DHT22;3533;51.246;6.850;2023-08-07T05:02:01;22.60;45.80
6986;DHT22;3533;51.246;6.850;2023-08-07T05:04:26;22.50;45.70
6986;DHT22;3533;51.246;6.850;2023-08-07T05:06:52;22.50;45.80
6986;DHT22;3533;51.246;6.850;2023-08-07T05:09:17;22.50;45.80
6986;DHT22;3533;51.246;6.850;2023-08-07T05:11:43;22.50;45.80
6986;DHT22;3533;51.246;6.850;2023-08-07T05:14:09;22.60;46.00
6986;DHT22;3533;51.246;6.850;2023-08-07T05:16:34;22.60;46.00
6986;DHT22;3533;51.246;6.850;2023-08-07T05:19:00;22.60;46.00
6986;DHT22;3533;51.246;6.850;2023-08-07T05:21:25;22.60;46.80
6986;DHT22;3533;51.246;6.850;2023-08-07T05:23:51;22.50;45.90
6986;DHT22;3533;51.246;6.850;2023-08-07T05:26:20;22.60;46.00
6986;DHT22;3533;51.246;6.850;2023-08-07T05:28:46;22.60;45.90
6986;DHT22;3533;51.246;6.850;2023-08-07T05:31:12;22.60;46.00
6986;DHT22;3533;51.246;6.850;2023-08-07T05:33:37;22.60;45.90
6986;DHT22;3533;51.246;6.850;2023-08-07T05:36:03;22.60;45.90
6986;DHT22;3533;51.246;6.850;2023-08-07T05:38:31;22.60;45.90
6986;DHT22;3533;51.246;6.850;2023-08-07T05:40:57;22.60;45.80
6986;DHT22;3533;51.246;6.850;2023-08-07T05:43:22;22.60;45.80
6986;DHT22;3533;51.246;6.850;2023-08-07T05:45:48;22.60;45.80
6986;DHT22;3533;51.246;6.850;2023-08-07T05:48:14;22.60;45.80
6986;DHT22;3533;51.246;6.850;2023-08-07T05:50:41;22.60;45.70
6986;DHT22;3533;51.246;6.850;2023-08-07T05:53:07;22.60;45.70
6986;DHT22;3533;51.246;6.850;2023-08-07T05:55:33;22.60;45.80
6986;DHT22;3533;51.246;6.850;2023-08-07T05:57:59;22.60;45.90
6986;DHT22;3533;51.246;6.850;2023-08-07T06:00:24;22.60;45.90
6986;DHT22;3533;51.246;6.850;2023-08-07T06:02:50;22.60;46.00
6986;DHT22;3533;51.246;6.850;2023-08-07T06:05:16;22.60;46.00
6986;DHT22;3533;51.246;6.850;2023-08-07T06:07:42;22.60;46.10
6986;DHT22;3533;51.246;6.850;2023-08-07T06:10:07;22.60;46.10
6986;DHT22;3533;51.246;6.850;2023-08-07T06:12:33;22.60;46.10
6986;DHT22;3533;51.246;6.850;2023-08-07T06:14:58;22.60;46.20
6986;DHT22;3533;51.246;6.850;2023-08-07T06:17:24;22.60;46.20
6986;DHT22;3533;51.246;6.850;2023-08-07T06:19:49;22.60;46.20
6986;DHT22;3533;51.246;6.850;2023-08-07T06:22:15;22.60;46.20
6986;DHT22;3533;51.246;6.850;2023-08-07T06:24:40;22.60;46.20
6986;DHT22;3533;51.246;6.850;2023-08-07T06:27:06;22.60;46.20
6986;DHT22;3533;51.246;6.850;2023-08-07T06:29:32;22.60;46.20
6986;DHT22;3533;51.246;6.850;2023-08-07T06:31:57;22.60;46.20
6986;DHT22;3533;51.246;6.850;2023-08-07T06:34:23;22.60;46.00
6986;DHT22;3533;51.246;6.850;2023-08-07T06:36:49;22.60;45.90
6986;DHT22;3533;51.246;6.850;2023-08-07T06:39:15;22.60;45.80
6986;DHT22;3533;51.246;6.850;2023-08-07T06:41:40;22.60;45.90
6986;DHT22;3533;51.246;6.850;2023-08-07T06:44:06;22.60;45.80
6986;DHT22;3533;51.246;6.850;2023-08-07T06:46:31;22.60;45.60
6986;DHT22;3533;51.246;6.850;2023-08-07T06:48:57;22.60;45.60
6986;DHT22;3533;51.246;6.850;2023-08-07T06:51:22;22.60;45.60
6986;DHT22;3533;51.246;6.850;2023-08-07T06:53:48;22.60;45.60
6986;DHT22;3533;51.246;6.850;2023-08-07T06:56:13;22.60;45.60
6986;DHT22;3533;51.246;6.850;2023-08-07T06:58:39;22.60;45.60
6986;DHT22;3533;51.246;6.850;2023-08-07T07:01:04;22.60;45.70
6986;DHT22;3533;51.246;6.850;2023-08-07T07:03:30;22.60;45.70
6986;DHT22;3533;51.246;6.850;2023-08-07T07:05:55;22.60;45.80
6986;DHT22;3533;51.246;6.850;2023-08-07T07:08:21;22.60;46.00
6986;DHT22;3533;51.246;6.850;2023-08-07T07:10:48;22.60;46.00
6986;DHT22;3533;51.246;6.850;2023-08-07T07:13:14;22.60;46.00
6986;DHT22;3533;51.246;6.850;2023-08-07T07:15:39;22.60;46.10
6986;DHT22;3533;51.246;6.850;2023-08-07T07:18:05;22.60;46.10
6986;DHT22;3533;51.246;6.850;2023-08-07T07:20:31;22.60;46.10
6986;DHT22;3533;51.246;6.850;2023-08-07T07:22:57;22.60;46.20
6986;DHT22;3533;51.246;6.850;2023-08-07T07:25:22;22.60;46.20
6986;DHT22;3533;51.246;6.850;2023-08-07T07:27:48;22.60;46.30
6986;DHT22;3533;51.246;6.850;2023-08-07T07:30:13;22.60;46.30
6986;DHT22;3533;51.246;6.850;2023-08-07T07:32:39;22.60;46.20
6986;DHT22;3533;51.246;6.850;2023-08-07T07:35:05;22.60;46.30
6986;DHT22;3533;51.246;6.850;2023-08-07T07:37:31;22.50;46.20
6986;DHT22;3533;51.246;6.850;2023-08-07T07:39:57;22.60;46.30
6986;DHT22;3533;51.246;6.850;2023-08-07T07:42:22;22.60;46.40
6986;DHT22;3533;51.246;6.850;2023-08-07T07:44:48;22.60;46.40
6986;DHT22;3533;51.246;6.850;2023-08-07T07:47:13;22.60;46.30
6986;DHT22;3533;51.246;6.850;2023-08-07T07:49:39;22.60;46.30
6986;DHT22;3533;51.246;6.850;2023-08-07T07:52:05;22.60;46.40
6986;DHT22;3533;51.246;6.850;2023-08-07T07:54:31;22.50;46.30
6986;DHT22;3533;51.246;6.850;2023-08-07T07:56:57;22.60;46.50
6986;DHT22;3533;51.246;6.850;2023-08-07T07:59:22;22.60;46.50
6986;DHT22;3533;51.246;6.850;2023-08-07T08:01:48;22.60;46.40
6986;DHT22;3533;51.246;6.850;2023-08-07T08:04:13;22.60;46.40
6986;DHT22;3533;51.246;6.850;2023-08-07T08:06:40;22.60;46.50
6986;DHT22;3533;51.246;6.850;2023-08-07T08:09:06;22.60;46.40
6986;DHT22;3533;51.246;6.850;2023-08-07T08:11:34;22.60;46.50
6986;DHT22;3533;51.246;6.850;2023-08-07T08:13:59;22.60;46.50
6986;DHT22;3533;51.246;6.850;2023-08-07T08:16:25;22.60;46.40
6986;DHT22;3533;51.246;6.850;2023-08-07T08:18:51;22.60;46.40
6986;DHT22;3533;51.246;6.850;2023-08-07T08:21:16;22.60;46.50
6986;DHT22;3533;51.246;6.850;2023-08-07T08:23:42;22.60;46.50
6986;DHT22;3533;51.246;6.850;2023-08-07T08:26:07;22.60;46.50
6986;DHT22;3533;51.246;6.850;2023-08-07T08:28:33;22.50;46.30
6986;DHT22;3533;51.246;6.850;2023-08-07T08:30:58;22.60;46.50
6986;DHT22;3533;51.246;6.850;2023-08-07T08:33:24;22.60;46.50
6986;DHT22;3533;51.246;6.850;2023-08-07T08:35:49;22.60;46.60
6986;DHT22;3533;51.246;6.850;2023-08-07T08:38:15;22.60;46.50
6986;DHT22;3533;51.246;6.850;2023-08-07T08:40:42;22.50;46.50
6986;DHT22;3533;51.246;6.850;2023-08-07T08:43:09;22.60;46.60
6986;DHT22;3533;51.246;6.850;2023-08-07T08:45:37;22.60;46.50
6986;DHT22;3533;51.246;6.850;2023-08-07T08:48:04;22.50;46.40
6986;DHT22;3533;51.246;6.850;2023-08-07T08:50:32;22.50;46.40
6986;DHT22;3533;51.246;6.850;2023-08-07T08:52:59;22.50;46.50
6986;DHT22;3533;51.246;6.850;2023-08-07T08:55:26;22.50;46.60
6986;DHT22;3533;51.246;6.850;2023-08-07T08:57:52;22.50;46.50
6986;DHT22;3533;51.246;6.850;2023-08-07T09:00:19;22.50;46.50
6986;DHT22;3533;51.246;6.850;2023-08-07T09:02:48;22.50;46.50
6986;DHT22;3533;51.246;6.850;2023-08-07T09:05:15;22.50;46.40
6986;DHT22;3533;51.246;6.850;2023-08-07T09:07:41;22.50;46.50
6986;DHT22;3533;51.246;6.850;2023-08-07T09:10:09;22.50;46.50
6986;DHT22;3533;51.246;6.850;2023-08-07T09:12:38;22.50;46.50
6986;DHT22;3533;51.246;6.850;2023-08-07T09:15:06;22.50;46.50
6986;DHT22;3533;51.246;6.850;2023-08-07T09:17:35;22.50;46.40
6986;DHT22;3533;51.246;6.850;2023-08-07T09:20:04;22.50;46.50
6986;DHT22;3533;51.246;6.850;2023-08-07T09:22:31;22.50;46.50
6986;DHT22;3533;51.246;6.850;2023-08-07T09:24:57;22.50;46.50
6986;DHT22;3533;51.246;6.850;2023-08-07T09:27:25;22.50;46.50
6986;DHT22;3533;51.246;6.850;2023-08-07T09:29:51;22.50;46.50
6986;DHT22;3533;51.246;6.850;2023-08-07T09:32:17;22.50;46.40
6986;DHT22;3533;51.246;6.850;2023-08-07T09:34:44;22.50;46.50
6986;DHT22;3533;51.246;6.850;2023-08-07T09:37:09;22.50;46.40
6986;DHT22;3533;51.246;6.850;2023-08-07T09:39:36;22.50;46.50
6986;DHT22;3533;51.246;6.850;2023-08-07T09:42:03;22.50;46.40
6986;DHT22;3533;51.246;6.850;2023-08-07T09:44:37;22.50;46.50
6986;DHT22;3533;51.246;6.850;2023-08-07T09:47:13;22.50;47.20
6986;DHT22;3533;51.246;6.850;2023-08-07T09:49:39;22.50;46.30
6986;DHT22;3533;51.246;6.850;2023-08-07T09:52:06;22.50;46.50
6986;DHT22;3533;51.246;6.850;2023-08-07T09:54:33;22.50;46.40
6986;DHT22;3533;51.246;6.850;2023-08-07T09:57:01;22.50;46.40
6986;DHT22;3533;51.246;6.850;2023-08-07T09:59:27;22.50;46.40
6986;DHT22;3533;51.246;6.850;2023-08-07T10:01:54;22.50;46.40
6986;DHT22;3533;51.246;6.850;2023-08-07T10:04:23;22.50;46.40
6986;DHT22;3533;51.246;6.850;2023-08-07T10:06:49;22.50;46.30
6986;DHT22;3533;51.246;6.850;2023-08-07T10:09:15;22.50;46.40
6986;DHT22;3533;51.246;6.850;2023-08-07T10:11:41;22.50;46.50
6986;DHT22;3533;51.246;6.850;2023-08-07T10:14:09;22.50;46.40
6986;DHT22;3533;51.246;6.850;2023-08-07T10:16:34;22.50;46.40
6986;DHT22;3533;51.246;6.850;2023-08-07T10:19:08;22.50;46.30
6986;DHT22;3533;51.246;6.850;2023-08-07T10:21:39;22.50;46.30
6986;DHT22;3533;51.246;6.850;2023-08-07T10:24:05;22.50;46.30
6986;DHT22;3533;51.246;6.850;2023-08-07T10:26:33;22.50;46.30
6986;DHT22;3533;51.246;6.850;2023-08-07T10:29:02;22.50;46.30
6986;DHT22;3533;51.246;6.850;2023-08-07T10:31:29;22.50;46.30
6986;DHT22;3533;51.246;6.850;2023-08-07T10:33:55;22.50;46.30
6986;DHT22;3533;51.246;6.850;2023-08-07T10:36:21;22.50;46.30
6986;DHT22;3533;51.246;6.850;2023-08-07T10:38:50;22.50;46.20
6986;DHT22;3533;51.246;6.850;2023-08-07T10:41:18;22.50;46.20
6986;DHT22;3533;51.246;6.850;2023-08-07T10:43:45;22.50;46.20
6986;DHT22;3533;51.246;6.850;2023-08-07T10:46:20;22.50;46.20
6986;DHT22;3533;51.246;6.850;2023-08-07T10:48:54;22.50;46.20
6986;DHT22;3533;51.246;6.850;2023-08-07T10:51:30;22.50;46.20
6986;DHT22;3533;51.246;6.850;2023-08-07T10:53:56;22.50;46.10
6986;DHT22;3533;51.246;6.850;2023-08-07T10:56:32;22.50;46.10
6986;DHT22;3533;51.246;6.850;2023-08-07T10:58:57;22.50;46.10
6986;DHT22;3533;51.246;6.850;2023-08-07T11:01:41;22.50;46.10
6986;DHT22;3533;51.246;6.850;2023-08-07T11:04:09;22.50;46.10
6986;DHT22;3533;51.246;6.850;2023-08-07T11:06:37;22.50;46.10
6986;DHT22;3533;51.246;6.850;2023-08-07T11:09:05;22.50;46.10
6986;DHT22;3533;51.246;6.850;2023-08-07T11:11:40;22.50;46.00
6986;DHT22;3533;51.246;6.850;2023-08-07T11:14:06;22.60;46.10
6986;DHT22;3533;51.246;6.850;2023-08-07T11:16:34;22.50;46.00
6986;DHT22;3533;51.246;6.850;2023-08-07T11:18:59;22.60;46.10
6986;DHT22;3533;51.246;6.850;2023-08-07T11:21:25;22.60;46.10
6986;DHT22;3533;51.246;6.850;2023-08-07T11:23:51;22.60;46.10
6986;DHT22;3533;51.246;6.850;2023-08-07T11:26:17;22.60;46.00
6986;DHT22;3533;51.246;6.850;2023-08-07T11:28:43;22.60;46.00
6986;DHT22;3533;51.246;6.850;2023-08-07T11:31:08;22.60;46.00
6986;DHT22;3533;51.246;6.850;2023-08-07T11:33:35;22.60;45.90
6986;DHT22;3533;51.246;6.850;2023-08-07T11:36:01;22.60;46.00
6986;DHT22;3533;51.246;6.850;2023-08-07T11:38:37;22.60;45.90
6986;DHT22;3533;51.246;6.850;2023-08-07T11:41:05;22.60;45.80
6986;DHT22;3533;51.246;6.850;2023-08-07T11:43:32;22.60;45.70
6986;DHT22;3533;51.246;6.850;2023-08-07T11:46:02;22.60;45.60
6986;DHT22;3533;51.246;6.850;2023-08-07T11:48:31;22.60;45.60
6986;DHT22;3533;51.246;6.850;2023-08-07T11:50:57;22.60;45.60
6986;DHT22;3533;51.246;6.850;2023-08-07T11:53:25;22.60;45.50
6986;DHT22;3533;51.246;6.850;2023-08-07T11:55:57;22.60;45.40
6986;DHT22;3533;51.246;6.850;2023-08-07T11:58:24;22.60;45.30
6986;DHT22;3533;51.246;6.850;2023-08-07T12:00:50;22.60;45.30
6986;DHT22;3533;51.246;6.850;2023-08-07T12:03:36;22.60;45.30
6986;DHT22;3533;51.246;6.850;2023-08-07T12:06:05;22.60;45.30
6986;DHT22;3533;51.246;6.850;2023-08-07T12:08:41;22.60;45.30
6986;DHT22;3533;51.246;6.850;2023-08-07T12:11:09;22.60;45.20
6986;DHT22;3533;51.246;6.850;2023-08-07T12:13:41;22.60;45.20
6986;DHT22;3533;51.246;6.850;2023-08-07T12:16:07;22.60;45.20
6986;DHT22;3533;51.246;6.850;2023-08-07T12:18:50;22.60;45.20
6986;DHT22;3533;51.246;6.850;2023-08-07T12:21:18;22.60;45.10
6986;DHT22;3533;51.246;6.850;2023-08-07T12:23:44;22.60;45.10
6986;DHT22;3533;51.246;6.850;2023-08-07T12:26:13;22.60;45.00
6986;DHT22;3533;51.246;6.850;2023-08-07T12:28:38;22.60;45.00
6986;DHT22;3533;51.246;6.850;2023-08-07T12:31:04;22.60;45.00
6986;DHT22;3533;51.246;6.850;2023-08-07T12:33:29;22.60;44.90
6986;DHT22;3533;51.246;6.850;2023-08-07T12:35:56;22.60;44.90
6986;DHT22;3533;51.246;6.850;2023-08-07T12:38:22;22.60;44.80
6986;DHT22;3533;51.246;6.850;2023-08-07T12:40:48;22.60;44.80
6986;DHT22;3533;51.246;6.850;2023-08-07T12:43:13;22.60;44.80
6986;DHT22;3533;51.246;6.850;2023-08-07T12:45:39;22.60;44.70
6986;DHT22;3533;51.246;6.850;2023-08-07T12:48:04;22.60;44.70
6986;DHT22;3533;51.246;6.850;2023-08-07T12:50:30;22.60;44.70
6986;DHT22;3533;51.246;6.850;2023-08-07T12:52:56;22.60;44.60
6986;DHT22;3533;51.246;6.850;2023-08-07T12:55:22;22.60;44.70
6986;DHT22;3533;51.246;6.850;2023-08-07T12:57:47;22.60;44.60
6986;DHT22;3533;51.246;6.850;2023-08-07T13:00:15;22.60;44.50
6986;DHT22;3533;51.246;6.850;2023-08-07T13:02:42;22.60;44.50
6986;DHT22;3533;51.246;6.850;2023-08-07T13:05:08;22.60;44.40
6986;DHT22;3533;51.246;6.850;2023-08-07T13:07:35;22.60;44.30
6986;DHT22;3533;51.246;6.850;2023-08-07T13:10:00;22.60;44.40
6986;DHT22;3533;51.246;6.850;2023-08-07T13:12:26;22.60;44.50
6986;DHT22;3533;51.246;6.850;2023-08-07T13:14:52;22.60;44.50
6986;DHT22;3533;51.246;6.850;2023-08-07T13:17:17;22.60;44.50
6986;DHT22;3533;51.246;6.850;2023-08-07T13:19:43;22.60;44.50
6986;DHT22;3533;51.246;6.850;2023-08-07T13:22:08;22.60;44.60
6986;DHT22;3533;51.246;6.850;2023-08-07T13:24:34;22.60;44.60
6986;DHT22;3533;51.246;6.850;2023-08-07T13:27:00;22.60;44.60
6986;DHT22;3533;51.246;6.850;2023-08-07T13:29:26;22.60;44.60
6986;DHT22;3533;51.246;6.850;2023-08-07T13:31:55;22.60;44.70
6986;DHT22;3533;51.246;6.850;2023-08-07T13:34:20;22.70;44.80
6986;DHT22;3533;51.246;6.850;2023-08-07T13:36:47;22.70;44.90
6986;DHT22;3533;51.246;6.850;2023-08-07T13:39:12;22.70;45.00
6986;DHT22;3533;51.246;6.850;2023-08-07T13:41:39;22.70;45.00
6986;DHT22;3533;51.246;6.850;2023-08-07T13:44:04;22.70;45.00
6986;DHT22;3533;51.246;6.850;2023-08-07T13:46:30;22.70;45.10
6986;DHT22;3533;51.246;6.850;2023-08-07T13:48:55;22.70;45.10
6986;DHT22;3533;51.246;6.850;2023-08-07T13:51:21;22.70;45.10
6986;DHT22;3533;51.246;6.850;2023-08-07T13:53:46;22.70;45.00
6986;DHT22;3533;51.246;6.850;2023-08-07T13:56:12;22.70;45.10
6986;DHT22;3533;51.246;6.850;2023-08-07T13:58:38;22.70;45.10
6986;DHT22;3533;51.246;6.850;2023-08-07T14:01:04;22.70;45.10
6986;DHT22;3533;51.246;6.850;2023-08-07T14:03:30;22.70;45.00
6986;DHT22;3533;51.246;6.850;2023-08-07T14:05:56;22.70;45.10
6986;DHT22;3533;51.246;6.850;2023-08-07T14:08:21;22.70;45.10
6986;DHT22;3533;51.246;6.850;2023-08-07T14:10:47;22.70;46.00
6986;DHT22;3533;51.246;6.850;2023-08-07T14:13:13;22.70;45.20
6986;DHT22;3533;51.246;6.850;2023-08-07T14:15:39;22.70;45.30
6986;DHT22;3533;51.246;6.850;2023-08-07T14:18:04;22.70;45.30
6986;DHT22;3533;51.246;6.850;2023-08-07T14:20:30;22.70;45.40
6986;DHT22;3533;51.246;6.850;2023-08-07T14:22:55;22.70;45.40
6986;DHT22;3533;51.246;6.850;2023-08-07T14:25:21;22.70;45.50
6986;DHT22;3533;51.246;6.850;2023-08-07T14:27:47;22.70;45.50
6986;DHT22;3533;51.246;6.850;2023-08-07T14:30:14;22.70;45.50
6986;DHT22;3533;51.246;6.850;2023-08-07T14:32:39;22.70;45.60
6986;DHT22;3533;51.246;6.850;2023-08-07T14:35:05;22.70;45.60
6986;DHT22;3533;51.246;6.850;2023-08-07T14:37:31;22.70;45.60
6986;DHT22;3533;51.246;6.850;2023-08-07T14:39:56;22.70;45.70
6986;DHT22;3533;51.246;6.850;2023-08-07T14:42:23;22.70;45.70
6986;DHT22;3533;51.246;6.850;2023-08-07T14:44:48;22.70;45.80
6986;DHT22;3533;51.246;6.850;2023-08-07T14:47:14;22.70;45.70
6986;DHT22;3533;51.246;6.850;2023-08-07T14:49:40;22.70;46.50
6986;DHT22;3533;51.246;6.850;2023-08-07T14:52:05;22.70;45.80
6986;DHT22;3533;51.246;6.850;2023-08-07T14:54:32;22.70;45.80
6986;DHT22;3533;51.246;6.850;2023-08-07T14:56:58;22.70;45.80
6986;DHT22;3533;51.246;6.850;2023-08-07T14:59:24;22.70;45.80
6986;DHT22;3533;51.246;6.850;2023-08-07T15:01:50;22.70;45.90
6986;DHT22;3533;51.246;6.850;2023-08-07T15:04:16;22.70;45.90
6986;DHT22;3533;51.246;6.850;2023-08-07T15:06:41;22.70;46.00
6986;DHT22;3533;51.246;6.850;2023-08-07T15:09:08;22.70;46.00
6986;DHT22;3533;51.246;6.850;2023-08-07T15:11:34;22.70;46.10
6986;DHT22;3533;51.246;6.850;2023-08-07T15:14:00;22.70;46.00
6986;DHT22;3533;51.246;6.850;2023-08-07T15:16:25;22.70;46.00
6986;DHT22;3533;51.246;6.850;2023-08-07T15:18:51;22.70;46.00
6986;DHT22;3533;51.246;6.850;2023-08-07T15:21:16;22.70;46.00
6986;DHT22;3533;51.246;6.850;2023-08-07T15:23:43;22.70;46.10
6986;DHT22;3533;51.246;6.850;2023-08-07T15:26:09;22.70;46.10
6986;DHT22;3533;51.246;6.850;2023-08-07T15:28:34;22.70;46.10
6986;DHT22;3533;51.246;6.850;2023-08-07T15:31:00;22.70;46.10
6986;DHT22;3533;51.246;6.850;2023-08-07T15:33:25;22.70;46.20
6986;DHT22;3533;51.246;6.850;2023-08-07T15:35:53;22.70;46.20
6986;DHT22;3533;51.246;6.850;2023-08-07T15:38:19;22.70;46.10
6986;DHT22;3533;51.246;6.850;2023-08-07T15:40:45;22.70;46.20
6986;DHT22;3533;51.246;6.850;2023-08-07T15:43:10;22.70;46.20
6986;DHT22;3533;51.246;6.850;2023-08-07T15:45:36;22.70;46.20
6986;DHT22;3533;51.246;6.850;2023-08-07T15:48:02;22.70;46.20
6986;DHT22;3533;51.246;6.850;2023-08-07T15:50:28;22.70;46.10
6986;DHT22;3533;51.246;6.850;2023-08-07T15:52:54;22.70;46.10
6986;DHT22;3533;51.246;6.850;2023-08-07T15:55:19;22.70;46.10
6986;DHT22;3533;51.246;6.850;2023-08-07T15:57:45;22.70;46.10
6986;DHT22;3533;51.246;6.850;2023-08-07T16:00:13;22.70;46.10
6986;DHT22;3533;51.246;6.850;2023-08-07T16:02:39;22.70;46.10
6986;DHT22;3533;51.246;6.850;2023-08-07T16:05:05;22.70;46.10